KCLK/CLK METAR and TAF weather

Enter ICAO airport designator
Station Type Date Time Source
KCLK METAR 2020/02/22 07:35 UTC NOAA

KCLK 220735Z AUTO 17010KT 10SM CLR 02/M03 A3032 RMK AO2


Station Type Date Time Source
KCLK Decoded METAR 2020/02/22 07:35 UTC NOAA

Clinton, Clinton Regional Airport, OK, United States (KCLK) 35-32-17N 098-55-17W
Feb 22, 2020 - 02:35 AM EST / 2020.02.22 0735 UTC
Wind: from the S (170 degrees) at 12 MPH (10 KT):0
Visibility: 10 mile(s):0
Sky conditions: clear
Temperature: 35 F (2 C)
Windchill: 26 F (-3 C):1
Dew Point: 26 F (-3 C)
Relative Humidity: 69%
Pressure (altimeter): 30.32 in. Hg (1026 hPa)
ob: KCLK 220735Z AUTO 17010KT 10SM CLR 02/M03 A3032 RMK AO2
cycle: 7

Station Type Date Time Source
KCLK TAF UTC NOAA

Error!

Example: see airport list